Time;durP1;ratioP1;P1;durP2;ratioP2;P2;SDS_P1;SDS_P2;PMS_P1;PMS_P2;Temp;Humidity;BMP_temperature;BMP_pressure;BME280_temperature;BME280_humidity;BME280_pressure;Samples;Min_cycle;Max_cycle;Signal;HPM_P1;HPM_P2
2022/06/09 00:01:27;;;;;;;0.40;0.40;;;14.80;99.90;;;;;;5032315;28;20207;-77
2022/06/09 00:04:08;;;;;;;0.40;0.40;;;14.80;99.90;;;;;;5032717;28;20187;-78
2022/06/09 00:06:40;;;;;;;0.37;0.37;;;14.80;99.90;;;;;;5028108;28;20247;-76
2022/06/09 00:09:06;;;;;;;0.40;0.40;;;14.80;99.90;;;;;;5031661;28;20187;-77
2022/06/09 00:11:35;;;;;;;0.40;0.40;;;14.80;99.90;;;;;;5031819;28;20203;-77
2022/06/09 00:14:01;;;;;;;0.37;0.37;;;14.80;99.90;;;;;;5032548;28;20234;-78
2022/06/09 00:16:27;;;;;;;0.40;0.40;;;14.80;99.90;;;;;;5032869;28;20172;-77
2022/06/09 00:18:53;;;;;;;0.30;0.30;;;14.80;99.90;;;;;;5032268;28;20680;-78
2022/06/09 00:21:18;;;;;;;0.40;0.40;;;14.80;99.90;;;;;;5032735;28;20215;-77
2022/06/09 00:23:44;;;;;;;0.40;0.40;;;14.80;99.90;;;;;;5032475;28;20637;-77
2022/06/09 00:26:09;;;;;;;0.40;0.40;;;14.90;99.90;;;;;;5032192;28;20180;-76
2022/06/09 00:28:35;;;;;;;0.50;0.50;;;14.90;99.90;;;;;;5033418;28;20936;-77
2022/06/09 00:31:01;;;;;;;0.50;0.50;;;14.90;99.90;;;;;;5033683;28;20560;-78
2022/06/09 00:33:26;;;;;;;0.40;0.40;;;14.90;99.90;;;;;;5036218;28;20187;-77
2022/06/09 00:35:52;;;;;;;0.37;0.37;;;14.90;99.90;;;;;;5035644;28;20608;-78
2022/06/09 00:38:18;;;;;;;0.43;0.43;;;14.90;99.90;;;;;;5034960;28;20180;-78
2022/06/09 00:40:43;;;;;;;0.40;0.40;;;14.90;99.90;;;;;;5034979;28;20277;-78
2022/06/09 00:43:09;;;;;;;0.30;0.30;;;14.90;99.90;;;;;;5036311;28;20191;-78
2022/06/09 00:45:37;;;;;;;0.30;0.30;;;15.00;99.90;;;;;;5035466;28;20187;-78
2022/06/09 00:48:21;;;;;;;0.40;0.40;;;14.90;99.90;;;;;;5035820;28;20176;-78
2022/06/09 00:50:51;;;;;;;0.40;0.40;;;15.00;99.90;;;;;;5035528;28;20223;-79
2022/06/09 00:53:22;;;;;;;0.40;0.40;;;15.00;99.90;;;;;;5033139;28;20184;-77
2022/06/09 00:55:49;;;;;;;0.50;0.50;;;15.00;99.90;;;;;;5032223;28;20311;-77
2022/06/09 00:58:19;;;;;;;0.40;0.40;;;14.90;99.90;;;;;;5033560;28;20171;-77
2022/06/09 01:00:50;;;;;;;0.40;0.40;;;15.00;99.90;;;;;;5035608;28;20677;-77
2022/06/09 01:03:18;;;;;;;0.40;0.40;;;15.00;99.90;;;;;;5035748;28;20172;-76
2022/06/09 01:05:45;;;;;;;0.30;0.30;;;14.90;99.90;;;;;;5035515;28;20206;-77
2022/06/09 01:08:12;;;;;;;0.40;0.40;;;14.90;99.90;;;;;;5035792;28;20184;-76
2022/06/09 01:10:38;;;;;;;0.40;0.40;;;14.90;99.90;;;;;;5035465;28;20176;-77
2022/06/09 01:13:04;;;;;;;0.40;0.40;;;14.80;99.90;;;;;;5035695;28;20191;-76
2022/06/09 01:15:55;;;;;;;0.40;0.40;;;14.80;99.90;;;;;;5035212;28;20183;-76
2022/06/09 01:18:28;;;;;;;0.40;0.40;;;14.70;99.90;;;;;;5035396;28;20168;-76
2022/06/09 01:21:30;;;;;;;0.40;0.40;;;14.70;99.90;;;;;;5034664;28;20281;-76
2022/06/09 01:24:04;;;;;;;0.40;0.40;;;14.60;99.90;;;;;;5035077;28;20182;-76
2022/06/09 01:27:05;;;;;;;0.30;0.30;;;14.60;99.90;;;;;;5033640;28;20641;-77
2022/06/09 01:29:40;;;;;;;0.40;0.40;;;14.50;99.90;;;;;;5011206;28;20557;-76
2022/06/09 01:32:32;;;;;;;0.40;0.40;;;14.50;99.90;;;;;;5035289;28;20202;-75
2022/06/09 01:35:17;;;;;;;0.40;0.40;;;14.50;99.90;;;;;;5034613;28;20183;-76
2022/06/09 01:37:48;;;;;;;0.40;0.40;;;14.50;99.90;;;;;;5034986;28;20203;-77
2022/06/09 01:40:16;;;;;;;0.40;0.40;;;14.50;99.90;;;;;;5034751;28;20672;-77
2022/06/09 01:42:55;;;;;;;0.40;0.40;;;14.40;99.90;;;;;;5035452;28;20277;-76
2022/06/09 01:45:41;;;;;;;0.40;0.40;;;14.40;99.90;;;;;;5035358;28;20176;-77
2022/06/09 01:48:19;;;;;;;0.37;0.37;;;14.40;99.90;;;;;;5035235;28;20249;-77
2022/06/09 01:50:50;;;;;;;0.30;0.30;;;14.30;99.90;;;;;;5034612;28;20187;-77
2022/06/09 01:53:39;;;;;;;0.30;0.30;;;14.30;99.90;;;;;;5035534;28;20175;-78
2022/06/09 01:56:15;;;;;;;0.40;0.40;;;14.20;99.90;;;;;;5035702;28;20266;-75
2022/06/09 01:59:15;;;;;;;0.30;0.30;;;14.20;99.90;;;;;;5036014;28;20176;-78
2022/06/09 02:02:04;;;;;;;0.47;0.47;;;14.20;99.90;;;;;;5032007;28;20222;-77
2022/06/09 02:04:47;;;;;;;0.30;0.30;;;14.20;99.90;;;;;;5035364;28;20168;-77
2022/06/09 02:07:14;;;;;;;0.40;0.40;;;14.20;99.90;;;;;;5035290;28;20178;-78
2022/06/09 02:09:40;;;;;;;0.50;0.50;;;14.10;99.90;;;;;;5033293;28;20206;-78
2022/06/09 02:12:13;;;;;;;0.40;0.40;;;14.20;99.90;;;;;;5035479;28;20223;-78
2022/06/09 02:14:43;;;;;;;0.50;0.50;;;14.20;99.90;;;;;;5033682;28;20198;-78
2022/06/09 02:17:09;;;;;;;0.40;0.40;;;14.10;99.90;;;;;;5031723;28;20272;-77
2022/06/09 02:19:36;;;;;;;0.40;0.40;;;14.10;99.90;;;;;;5033642;28;20294;-77
2022/06/09 02:22:05;;;;;;;0.40;0.40;;;14.10;99.90;;;;;;5034718;28;20253;-79
2022/06/09 02:24:32;;;;;;;0.40;0.40;;;14.10;99.90;;;;;;5034690;28;20172;-78
2022/06/09 02:26:58;;;;;;;0.47;0.47;;;14.10;99.90;;;;;;5034372;28;20206;-77
2022/06/09 02:29:24;;;;;;;0.40;0.40;;;14.10;99.90;;;;;;5034486;28;20180;-77
2022/06/09 02:31:50;;;;;;;0.40;0.40;;;14.10;99.90;;;;;;5034633;28;20200;-77
2022/06/09 02:34:16;;;;;;;0.40;0.40;;;14.10;99.90;;;;;;5034371;28;20577;-77
2022/06/09 02:36:43;;;;;;;0.50;0.50;;;14.10;99.90;;;;;;5034457;28;20775;-77
2022/06/09 02:39:08;;;;;;;0.33;0.33;;;14.00;99.90;;;;;;5033676;28;20184;-77
2022/06/09 02:41:34;;;;;;;0.40;0.40;;;14.00;99.90;;;;;;5034281;28;20310;-78
2022/06/09 02:44:00;;;;;;;0.40;0.40;;;13.90;99.90;;;;;;5034486;28;20542;-77
2022/06/09 02:46:26;;;;;;;0.40;0.40;;;13.90;99.90;;;;;;5033658;28;20180;-78
2022/06/09 02:48:53;;;;;;;0.40;0.40;;;13.90;99.90;;;;;;5035511;28;20190;-78
2022/06/09 02:51:32;;;;;;;0.40;0.40;;;13.90;99.90;;;;;;5035165;28;20203;-78
2022/06/09 02:54:06;;;;;;;0.40;0.40;;;13.90;99.90;;;;;;5035804;28;20182;-78
2022/06/09 02:56:32;;;;;;;0.40;0.40;;;13.80;99.90;;;;;;5036199;28;20206;-79
2022/06/09 02:58:58;;;;;;;0.50;0.50;;;13.80;99.90;;;;;;5035953;28;20672;-78
2022/06/09 03:01:25;;;;;;;0.40;0.40;;;13.80;99.90;;;;;;5036927;28;20218;-79
2022/06/09 03:03:51;;;;;;;0.40;0.40;;;13.80;99.90;;;;;;5037236;28;20167;-79
2022/06/09 03:06:17;;;;;;;0.37;0.37;;;13.80;99.90;;;;;;5035200;28;20180;-77
2022/06/09 03:08:43;;;;;;;0.40;0.40;;;13.80;99.90;;;;;;5034925;28;20258;-80
2022/06/09 03:11:10;;;;;;;0.40;0.40;;;13.80;99.90;;;;;;5034010;28;20209;-77
2022/06/09 03:13:40;;;;;;;0.40;0.40;;;13.80;99.90;;;;;;5034147;28;20182;-78
2022/06/09 03:16:07;;;;;;;0.40;0.40;;;13.80;99.90;;;;;;5034249;28;20195;-78
2022/06/09 03:18:33;;;;;;;0.40;0.40;;;13.80;99.90;;;;;;5034310;28;20182;-78
2022/06/09 03:20:59;;;;;;;0.33;0.33;;;13.80;99.90;;;;;;5033200;28;20211;-78
2022/06/09 03:23:24;;;;;;;0.30;0.30;;;13.80;99.90;;;;;;5034702;28;20211;-77
2022/06/09 03:25:50;;;;;;;0.40;0.40;;;13.80;99.90;;;;;;5034392;28;20172;-77
2022/06/09 03:28:15;;;;;;;0.40;0.40;;;13.70;99.90;;;;;;5033698;28;20202;-77
2022/06/09 03:30:41;;;;;;;0.40;0.40;;;13.80;99.90;;;;;;5033401;28;20191;-77
2022/06/09 03:33:07;;;;;;;0.40;0.40;;;13.70;99.90;;;;;;5032442;28;20204;-76
2022/06/09 03:35:33;;;;;;;0.40;0.40;;;13.70;99.90;;;;;;5032874;28;20176;-76
2022/06/09 03:37:59;;;;;;;0.40;0.40;;;13.70;99.90;;;;;;5033062;28;20229;-77
2022/06/09 03:40:27;;;;;;;0.40;0.40;;;13.70;99.90;;;;;;5032062;28;20303;-76
2022/06/09 03:42:53;;;;;;;0.40;0.40;;;13.70;99.90;;;;;;5032488;28;20665;-76
2022/06/09 03:45:19;;;;;;;0.40;0.40;;;13.70;99.90;;;;;;5033681;28;20190;-77
2022/06/09 03:47:45;;;;;;;0.30;0.30;;;13.80;99.90;;;;;;5035144;28;20653;-75
2022/06/09 03:50:22;;;;;;;0.50;0.50;;;13.70;99.90;;;;;;5036247;28;20198;-76
2022/06/09 03:52:48;;;;;;;0.37;0.37;;;13.80;99.90;;;;;;5038103;28;20237;-77
2022/06/09 03:55:14;;;;;;;0.37;0.37;;;13.80;99.90;;;;;;5039291;28;20179;-77
2022/06/09 03:57:39;;;;;;;0.50;0.50;;;13.80;99.90;;;;;;5037967;28;20172;-77
2022/06/09 04:00:07;;;;;;;0.40;0.40;;;13.80;99.90;;;;;;5032086;28;20253;-77
2022/06/09 04:02:33;;;;;;;0.30;0.30;;;13.70;99.90;;;;;;5032420;28;20195;-77
2022/06/09 04:04:59;;;;;;;0.30;0.30;;;13.80;99.90;;;;;;5032656;28;20191;-78
2022/06/09 04:07:24;;;;;;;0.40;0.40;;;13.80;99.90;;;;;;5032985;28;20215;-79
2022/06/09 04:09:50;;;;;;;0.40;0.40;;;13.80;99.90;;;;;;5032836;28;20531;-78
2022/06/09 04:12:16;;;;;;;0.40;0.40;;;13.80;99.90;;;;;;5033225;28;20192;-78
2022/06/09 04:14:42;;;;;;;0.40;0.40;;;13.80;99.90;;;;;;5033289;28;20172;-78
2022/06/09 04:17:09;;;;;;;0.40;0.40;;;13.80;99.90;;;;;;5035047;28;20180;-78
2022/06/09 04:19:35;;;;;;;0.40;0.40;;;13.80;99.90;;;;;;5035119;28;20633;-77
2022/06/09 04:22:00;;;;;;;0.60;0.60;;;13.90;99.90;;;;;;5034408;28;20199;-78
2022/06/09 04:24:26;;;;;;;0.40;0.40;;;13.90;99.90;;;;;;5033015;28;20176;-77
2022/06/09 04:26:52;;;;;;;0.40;0.40;;;14.00;99.90;;;;;;5033372;28;20180;-78
2022/06/09 04:29:18;;;;;;;0.40;0.40;;;14.00;99.90;;;;;;5032932;28;20254;-78
2022/06/09 04:31:45;;;;;;;0.30;0.30;;;14.00;99.90;;;;;;5033463;28;20203;-77
2022/06/09 04:34:11;;;;;;;0.40;0.40;;;14.00;99.90;;;;;;5033165;28;20676;-78
2022/06/09 04:36:37;;;;;;;0.43;0.43;;;14.00;99.90;;;;;;5033332;28;20176;-77
2022/06/09 04:39:05;;;;;;;0.40;0.40;;;14.00;99.90;;;;;;5032836;28;20179;-78
2022/06/09 04:41:31;;;;;;;0.37;0.37;;;13.90;99.90;;;;;;5032967;28;20243;-78
2022/06/09 04:43:57;;;;;;;0.40;0.40;;;14.00;99.90;;;;;;5033229;28;20182;-78
2022/06/09 04:46:24;;;;;;;0.30;0.30;;;14.00;99.90;;;;;;5033827;28;20183;-80
2022/06/09 04:48:49;;;;;;;0.40;0.40;;;14.00;99.90;;;;;;5033633;28;20167;-79
2022/06/09 04:51:18;;;;;;;0.43;0.43;;;14.00;99.90;;;;;;5034088;28;20691;-78
2022/06/09 04:53:45;;;;;;;0.50;0.50;;;14.00;99.90;;;;;;5033359;28;20186;-78
2022/06/09 04:56:10;;;;;;;0.40;0.40;;;14.00;99.90;;;;;;5033497;28;20230;-79
2022/06/09 04:58:39;;;;;;;0.40;0.40;;;14.00;99.90;;;;;;5033637;28;20645;-79
2022/06/09 05:01:06;;;;;;;0.30;0.30;;;14.00;99.90;;;;;;5032936;28;20270;-78
2022/06/09 05:03:33;;;;;;;0.40;0.40;;;14.00;99.90;;;;;;5036251;28;20179;-80
2022/06/09 05:05:59;;;;;;;0.40;0.40;;;14.10;99.90;;;;;;5033384;28;20186;-78
2022/06/09 05:08:25;;;;;;;0.43;0.43;;;14.00;99.90;;;;;;5032108;28;20173;-77
2022/06/09 05:10:51;;;;;;;0.40;0.40;;;14.10;99.90;;;;;;5031312;28;20250;-77
2022/06/09 05:13:17;;;;;;;0.40;0.40;;;14.10;99.90;;;;;;5026427;28;20198;-77
2022/06/09 05:15:54;;;;;;;0.30;0.30;;;14.10;99.90;;;;;;5031092;28;20176;-76
2022/06/09 05:18:22;;;;;;;0.30;0.30;;;14.10;99.90;;;;;;5031453;28;20176;-77
2022/06/09 05:20:49;;;;;;;0.40;0.40;;;14.10;99.90;;;;;;5024754;28;20215;-77
2022/06/09 05:23:16;;;;;;;0.53;0.53;;;14.00;99.90;;;;;;5032089;28;20184;-78
2022/06/09 05:25:42;;;;;;;0.40;0.40;;;14.00;99.90;;;;;;5033430;28;20188;-77
2022/06/09 05:28:07;;;;;;;0.50;0.50;;;13.90;99.90;;;;;;5032606;28;20172;-78
2022/06/09 05:30:33;;;;;;;0.40;0.40;;;13.90;99.90;;;;;;5032465;28;20183;-78
2022/06/09 05:33:01;;;;;;;0.40;0.40;;;13.90;99.90;;;;;;5033386;28;20245;-77
2022/06/09 05:35:27;;;;;;;0.40;0.40;;;14.00;99.90;;;;;;5033110;28;20203;-78
2022/06/09 05:46:06;;;;;;;0.37;0.37;;;13.90;99.90;;;;;;5036215;28;20195;-78
2022/06/09 05:48:32;;;;;;;0.50;0.50;;;13.90;99.90;;;;;;5037345;28;20259;-79
2022/06/09 05:50:58;;;;;;;0.50;0.50;;;13.90;99.90;;;;;;5036669;28;20200;-78
2022/06/09 05:53:24;;;;;;;0.50;0.50;;;14.10;99.90;;;;;;5038625;28;20696;-79
2022/06/09 05:55:49;;;;;;;0.40;0.40;;;14.20;99.90;;;;;;5038153;28;20212;-78
2022/06/09 05:58:15;;;;;;;0.33;0.33;;;14.40;99.90;;;;;;5037085;28;20199;-77
2022/06/09 06:00:45;;;;;;;0.50;0.50;;;14.60;99.90;;;;;;5035793;28;20203;-78
2022/06/09 06:03:12;;;;;;;0.40;0.40;;;14.80;99.90;;;;;;5036602;28;20226;-78
2022/06/09 06:08:23;;;;;;;0.40;0.40;;;15.20;99.90;;;;;;5036186;28;20690;-79
2022/06/09 06:10:48;;;;;;;0.40;0.40;;;15.30;99.90;;;;;;5035770;28;20274;-78
2022/06/09 06:13:14;;;;;;;0.40;0.40;;;15.30;25.00;;;;;;5036479;28;20233;-77
2022/06/09 06:15:39;;;;;;;0.40;0.40;;;15.50;99.90;;;;;;5035070;28;20259;-76
2022/06/09 06:18:05;;;;;;;0.40;0.40;;;15.70;41.40;;;;;;5034942;28;20168;-77
2022/06/09 06:20:32;;;;;;;0.40;0.40;;;15.90;1.00;;;;;;5034391;28;20298;-78
2022/06/09 06:22:57;;;;;;;0.40;0.40;;;16.00;1.30;;;;;;5034859;28;20200;-76
2022/06/09 06:25:24;;;;;;;0.33;0.33;;;16.30;74.80;;;;;;5034402;28;20262;-77
2022/06/09 06:27:50;;;;;;;0.33;0.33;;;16.60;1.00;;;;;;5034693;28;20191;-75
2022/06/09 06:30:16;;;;;;;0.40;0.40;;;16.70;1.00;;;;;;5033960;28;20218;-77
2022/06/09 06:32:41;;;;;;;0.40;0.40;;;16.90;1.00;;;;;;5034616;28;20578;-77
2022/06/09 06:35:07;;;;;;;0.40;0.40;;;16.80;1.00;;;;;;5033593;28;20640;-76
2022/06/09 06:37:33;;;;;;;0.40;0.40;;;16.80;1.00;;;;;;5034106;28;20210;-75
2022/06/09 06:39:59;;;;;;;0.40;0.40;;;16.80;1.00;;;;;;5035043;28;20322;-78
2022/06/09 06:42:24;;;;;;;0.40;0.40;;;17.00;1.00;;;;;;5035720;28;20318;-77
2022/06/09 06:44:50;;;;;;;0.40;0.40;;;17.10;1.00;;;;;;5036645;28;20241;-77
2022/06/09 06:47:15;;;;;;;0.30;0.30;;;17.20;99.90;;;;;;5035566;28;20183;-76
2022/06/09 06:49:42;;;;;;;0.30;0.30;;;17.20;99.90;;;;;;5035620;28;20330;-77
2022/06/09 06:52:08;;;;;;;0.40;0.40;;;17.30;1.00;;;;;;5035340;28;20318;-77
2022/06/09 06:54:33;;;;;;;0.37;0.37;;;17.40;1.00;;;;;;5033612;28;20663;-76
2022/06/09 06:56:59;;;;;;;0.30;0.30;;;17.40;1.00;;;;;;5032731;28;20715;-76
2022/06/09 06:59:24;;;;;;;0.30;0.30;;;17.50;99.90;;;;;;5033514;28;20207;-77
2022/06/09 07:01:50;;;;;;;0.30;0.30;;;17.50;99.90;;;;;;5033184;28;20579;-76
2022/06/09 07:04:15;;;;;;;0.30;0.30;;;17.50;1.00;;;;;;5033489;28;20175;-76
2022/06/09 07:06:41;;;;;;;0.30;0.30;;;17.70;48.30;;;;;;5033648;28;20242;-75
2022/06/09 07:09:07;;;;;;;0.40;0.40;;;17.80;1.00;;;;;;5034140;28;20184;-77
2022/06/09 07:11:33;;;;;;;0.30;0.30;;;17.80;1.00;;;;;;5034194;28;20204;-78
2022/06/09 07:13:59;;;;;;;0.40;0.40;;;17.70;99.90;;;;;;5033448;28;20655;-77
2022/06/09 07:16:24;;;;;;;0.40;0.40;;;17.60;1.00;;;;;;5032909;28;20179;-77
2022/06/09 07:18:50;;;;;;;0.30;0.30;;;17.50;1.00;;;;;;5033015;28;20184;-77
2022/06/09 07:21:16;;;;;;;0.30;0.30;;;17.60;99.90;;;;;;5032742;28;20250;-77
2022/06/09 07:23:42;;;;;;;0.40;0.40;;;17.80;1.00;;;;;;5032923;28;20544;-76
2022/06/09 07:26:08;;;;;;;0.40;0.40;;;18.00;1.00;;;;;;5032855;28;20179;-77
2022/06/09 07:28:34;;;;;;;0.40;0.40;;;18.20;1.00;;;;;;5032497;28;20209;-72
2022/06/09 07:31:01;;;;;;;0.30;0.30;;;18.60;1.00;;;;;;5031964;28;20233;-72
2022/06/09 07:33:30;;;;;;;0.40;0.40;;;18.90;99.90;;;;;;5032684;28;20203;-73
2022/06/09 07:35:57;;;;;;;0.40;0.40;;;19.20;1.00;;;;;;5032582;28;20195;-74
2022/06/09 07:38:24;;;;;;;0.30;0.30;;;19.50;1.00;;;;;;5032425;28;20176;-74
2022/06/09 07:40:50;;;;;;;0.33;0.33;;;19.50;1.00;;;;;;5031737;28;20675;-74
2022/06/09 07:43:17;;;;;;;0.40;0.40;;;19.10;99.90;;;;;;5032494;28;20172;-75
2022/06/09 07:45:43;;;;;;;0.40;0.40;;;18.60;99.90;;;;;;5032246;28;20657;-74
2022/06/09 07:48:09;;;;;;;0.40;0.40;;;18.70;1.00;;;;;;5032546;28;20238;-74
2022/06/09 07:50:35;;;;;;;0.40;0.40;;;18.90;99.90;;;;;;5031816;28;20237;-74
2022/06/09 07:53:01;;;;;;;0.30;0.30;;;19.10;1.00;;;;;;5032126;28;20203;-74
2022/06/09 07:55:27;;;;;;;0.40;0.40;;;19.40;99.90;;;;;;5032247;28;20539;-75
2022/06/09 07:57:53;;;;;;;0.40;0.40;;;20.10;99.90;;;;;;5031609;28;20176;-74
2022/06/09 08:00:21;;;;;;;0.30;0.30;;;20.20;1.00;;;;;;5031319;28;20783;-73
2022/06/09 08:02:48;;;;;;;0.40;0.40;;;20.00;1.00;;;;;;5032170;28;20286;-75
2022/06/09 08:05:16;;;;;;;0.30;0.30;;;20.10;1.00;;;;;;5032101;28;20214;-74
2022/06/09 08:07:42;;;;;;;0.30;0.30;;;20.20;1.00;;;;;;5031313;28;20183;-74
2022/06/09 08:10:09;;;;;;;0.30;0.30;;;20.50;1.00;;;;;;5031467;28;20176;-74
2022/06/09 08:12:35;;;;;;;0.30;0.30;;;20.70;1.00;;;;;;5031906;28;20256;-73
2022/06/09 08:15:01;;;;;;;0.37;0.37;;;20.90;5.70;;;;;;5031882;28;20179;-73
2022/06/09 08:17:27;;;;;;;0.40;0.40;;;20.90;1.00;;;;;;5032024;28;20187;-72
2022/06/09 08:19:52;;;;;;;0.30;0.30;;;20.70;1.00;;;;;;5031367;28;20203;-72
2022/06/09 08:22:18;;;;;;;0.40;0.40;;;20.50;1.00;;;;;;5031093;28;20192;-72
2022/06/09 08:24:44;;;;;;;0.40;0.40;;;20.50;1.00;;;;;;5030636;28;20633;-76
2022/06/09 08:27:10;;;;;;;0.40;0.40;;;20.30;1.00;;;;;;5030722;28;20183;-73
2022/06/09 08:29:36;;;;;;;0.30;0.30;;;20.30;1.00;;;;;;5030052;28;20175;-74
2022/06/09 08:32:02;;;;;;;0.40;0.40;;;20.20;1.00;;;;;;5031172;28;20195;-75
2022/06/09 08:34:28;;;;;;;0.40;0.40;;;20.60;1.00;;;;;;5030541;28;20714;-75
2022/06/09 08:36:54;;;;;;;0.40;0.40;;;21.20;1.00;;;;;;5031279;28;20172;-75
2022/06/09 08:39:20;;;;;;;0.40;0.40;;;21.60;1.00;;;;;;5031136;28;20237;-75
2022/06/09 08:42:23;;;;;;;0.30;0.30;;;22.00;1.00;;;;;;5030540;28;20247;-74
2022/06/09 08:44:56;;;;;;;0.40;0.40;;;23.10;1.00;;;;;;5028950;28;20207;-75
2022/06/09 08:47:34;;;;;;;0.40;0.40;;;23.40;1.00;;;;;;5031134;28;20176;-75
2022/06/09 08:50:19;;;;;;;0.30;0.30;;;23.40;1.00;;;;;;5035447;28;20756;-74
2022/06/09 08:53:00;;;;;;;0.50;0.50;;;23.30;1.00;;;;;;5028112;28;20247;-75
2022/06/09 08:55:40;;;;;;;0.40;0.40;;;22.80;1.00;;;;;;5031483;28;20182;-74
2022/06/09 08:58:17;;;;;;;0.40;0.40;;;22.60;1.00;;;;;;5031305;28;20175;-75
2022/06/09 09:00:48;;;;;;;0.30;0.30;;;22.60;1.00;;;;;;5030595;28;20206;-75
2022/06/09 09:03:28;;;;;;;0.40;0.40;;;22.80;1.00;;;;;;5030896;28;20172;-77
2022/06/09 09:06:06;;;;;;;0.50;0.50;;;23.10;1.00;;;;;;5030837;28;20264;-73
2022/06/09 09:08:35;;;;;;;0.40;0.40;;;23.80;1.00;;;;;;5031546;28;20168;-73
2022/06/09 09:11:18;;;;;;;0.60;0.60;;;24.00;1.00;;;;;;5031589;28;20203;-74
2022/06/09 09:14:05;;;;;;;0.37;0.37;;;23.30;1.00;;;;;;5030657;28;20172;-72
2022/06/09 09:16:54;;;;;;;0.30;0.30;;;22.90;1.00;;;;;;5028837;28;20176;-74
2022/06/09 09:19:28;;;;;;;0.30;0.30;;;22.40;1.00;;;;;;5030588;28;20179;-74
2022/06/09 09:22:23;;;;;;;0.40;0.40;;;21.80;1.00;;;;;;5033155;28;20298;-72
2022/06/09 09:24:59;;;;;;;0.33;0.33;;;21.30;1.00;;;;;;5122933;22;21284;-79
2022/06/09 09:28:02;;;;;;;0.40;0.40;;;20.70;1.00;;;;;;5038748;28;20282;-79
2022/06/09 09:31:00;;;;;;;0.30;0.30;;;20.40;1.00;;;;;;5038961;28;20180;-80
2022/06/09 09:33:27;;;;;;;0.30;0.30;;;20.60;1.00;;;;;;5016069;28;20235;-80
2022/06/09 09:35:59;;;;;;;0.50;0.50;;;20.80;1.00;;;;;;5031375;28;20180;-79
2022/06/09 09:38:32;;;;;;;0.37;0.37;;;21.90;1.00;;;;;;5037986;28;20184;-81
2022/06/09 09:41:00;;;;;;;0.40;0.40;;;22.90;1.00;;;;;;5037639;28;20638;-80
2022/06/09 09:43:35;;;;;;;0.50;0.50;;;23.60;1.00;;;;;;5038258;28;20194;-80
2022/06/09 09:46:02;;;;;;;0.30;0.30;;;24.10;1.00;;;;;;5038036;28;20274;-80
2022/06/09 09:48:36;;;;;;;0.40;0.40;;;24.60;1.00;;;;;;5030265;28;20187;-81
2022/06/09 09:51:05;;;;;;;0.40;0.40;;;24.90;1.00;;;;;;5025497;28;20264;-81
2022/06/09 09:53:38;;;;;;;0.50;0.50;;;25.40;1.00;;;;;;5028270;28;20191;-86
2022/06/09 09:56:15;;;;;;;0.30;0.30;;;25.40;1.00;;;;;;5028101;28;20559;-81
2022/06/09 09:58:47;;;;;;;0.47;0.47;;;24.60;1.00;;;;;;5024087;28;20616;-80
2022/06/09 10:01:24;;;;;;;0.40;0.40;;;24.40;1.00;;;;;;5034047;28;20302;-80
2022/06/09 10:09:44;;;;;;;0.40;0.40;;;25.50;1.00;;;;;;5017595;28;20191;-80
2022/06/09 10:12:16;;;;;;;0.50;0.50;;;26.00;1.00;;;;;;5017943;28;20197;-80
2022/06/09 10:14:47;;;;;;;0.30;0.30;;;26.20;1.00;;;;;;5017651;28;20582;-80
2022/06/09 10:17:34;;;;;;;0.30;0.30;;;26.20;1.00;;;;;;5017603;28;20633;-80
2022/06/09 10:20:07;;;;;;;0.43;0.43;;;26.10;1.00;;;;;;5016253;28;20677;-81
2022/06/09 10:22:37;;;;;;;0.30;0.30;;;25.90;1.00;;;;;;5016810;28;20284;-81
2022/06/09 10:25:30;;;;;;;0.30;0.30;;;25.00;1.00;;;;;;5016676;28;20223;-80
2022/06/09 10:28:19;;;;;;;0.30;0.30;;;24.20;1.00;;;;;;5017390;28;20187;-81
2022/06/09 10:31:15;;;;;;;0.40;0.40;;;23.70;1.00;;;;;;5015383;28;20172;-80
2022/06/09 10:33:48;;;;;;;0.40;0.40;;;24.00;1.00;;;;;;5016736;28;20654;-81
2022/06/09 10:36:24;;;;;;;0.40;0.40;;;24.90;1.00;;;;;;5016764;28;20168;-80
2022/06/09 10:39:02;;;;;;;0.43;0.43;;;25.40;1.00;;;;;;5035806;28;20197;-81
2022/06/09 10:41:42;;;;;;;0.40;0.40;;;24.90;1.00;;;;;;5036116;28;20219;-80
2022/06/09 10:44:22;;;;;;;0.30;0.30;;;24.60;1.00;;;;;;5035477;28;20286;-81
2022/06/09 10:56:02;;;;;;;0.40;0.40;;;21.70;1.00;;;;;;5035828;28;20183;-80
2022/06/09 10:58:34;;;;;;;0.30;0.30;;;21.50;1.00;;;;;;5024826;28;20208;-80
2022/06/09 11:01:00;;;;;;;0.50;0.50;;;21.40;1.00;;;;;;5024333;28;20208;-80
2022/06/09 11:03:40;;;;;;;0.40;0.40;;;21.90;1.00;;;;;;5023125;28;20222;-81
2022/06/09 11:06:40;;;;;;;0.33;0.33;;;22.70;1.00;;;;;;5018762;28;20599;-80
2022/06/09 11:09:29;;;;;;;0.43;0.43;;;23.10;1.00;;;;;;5017553;28;20625;-80
2022/06/09 11:12:12;;;;;;;0.30;0.30;;;24.00;1.00;;;;;;5024037;28;20189;-80
2022/06/09 11:14:46;;;;;;;0.40;0.40;;;24.50;1.00;;;;;;5023067;28;20176;-82
2022/06/09 11:17:43;;;;;;;0.40;0.40;;;24.70;1.00;;;;;;5021139;28;20254;-80
2022/06/09 11:20:28;;;;;;;0.40;0.40;;;25.20;1.00;;;;;;5015439;28;20234;-79
2022/06/09 11:23:15;;;;;;;0.37;0.37;;;24.30;1.00;;;;;;5018800;28;20298;-79
2022/06/09 11:26:22;;;;;;;0.40;0.40;;;23.10;1.00;;;;;;5016583;28;20196;-80
2022/06/09 11:29:38;;;;;;;0.30;0.30;;;23.10;1.00;;;;;;5020434;28;20195;-79
2022/06/09 11:32:27;;;;;;;0.37;0.37;;;24.30;1.00;;;;;;5019431;28;20196;-79
2022/06/09 11:35:11;;;;;;;0.37;0.37;;;24.40;1.00;;;;;;5013902;28;20315;-81
2022/06/09 11:37:36;;;;;;;0.40;0.40;;;23.60;1.00;;;;;;5014780;28;20220;-79
2022/06/09 11:40:36;;;;;;;0.37;0.37;;;23.20;1.00;;;;;;5013416;28;20487;-80
2022/06/09 11:43:08;;;;;;;0.30;0.30;;;22.80;1.00;;;;;;5013988;28;20197;-79
2022/06/09 11:45:42;;;;;;;0.40;0.40;;;22.30;1.00;;;;;;5014086;28;20575;-81
2022/06/09 11:48:18;;;;;;;0.30;0.30;;;22.20;1.00;;;;;;5014186;28;20670;-79
2022/06/09 11:50:45;;;;;;;0.40;0.40;;;21.90;1.00;;;;;;5013576;28;20171;-80
2022/06/09 11:53:19;;;;;;;0.30;0.30;;;21.60;1.00;;;;;;5013853;28;20193;-80
2022/06/09 11:55:57;;;;;;;0.30;0.30;;;21.00;1.00;;;;;;5013642;28;20253;-80
2022/06/09 11:58:31;;;;;;;0.40;0.40;;;20.80;1.00;;;;;;5013980;28;20545;-77
2022/06/09 12:01:16;;;;;;;0.40;0.40;;;20.70;1.00;;;;;;5016152;28;20642;-79
2022/06/09 12:04:06;;;;;;;0.30;0.30;;;20.30;1.00;;;;;;5023086;28;20183;-80
2022/06/09 12:07:11;;;;;;;0.30;0.30;;;20.10;1.00;;;;;;5021983;28;20175;-77
2022/06/09 12:10:22;;;;;;;0.30;0.30;;;20.60;1.00;;;;;;5024049;28;20652;-79
2022/06/09 12:13:33;;;;;;;0.33;0.33;;;21.30;1.00;;;;;;5020371;28;20198;-78
2022/06/09 12:16:02;;;;;;;0.40;0.40;;;21.20;1.00;;;;;;5021466;28;20195;-78
2022/06/09 12:18:40;;;;;;;0.30;0.30;;;21.00;1.00;;;;;;5017179;28;20204;-79
2022/06/09 12:21:14;;;;;;;0.30;0.30;;;21.00;1.00;;;;;;5022523;28;20207;-78
2022/06/09 12:23:59;;;;;;;0.30;0.30;;;21.10;1.00;;;;;;5026109;28;20176;-79
2022/06/09 12:26:48;;;;;;;0.30;0.30;;;21.10;1.00;;;;;;4975581;28;20196;-79
2022/06/09 12:29:35;;;;;;;0.30;0.30;;;21.30;1.00;;;;;;5015646;28;20187;-80
2022/06/09 12:32:09;;;;;;;0.30;0.30;;;21.60;1.00;;;;;;5015696;28;20636;-79
2022/06/09 12:34:40;;;;;;;0.40;0.40;;;22.30;1.00;;;;;;5017032;28;20191;-77
2022/06/09 12:37:25;;;;;;;0.40;0.40;;;22.60;1.00;;;;;;5018573;28;20168;-80
2022/06/09 12:40:07;;;;;;;0.40;0.40;;;22.90;1.00;;;;;;5020173;28;20234;-79
2022/06/09 12:42:49;;;;;;;0.30;0.30;;;23.30;1.00;;;;;;5016989;28;20227;-78
2022/06/09 12:45:27;;;;;;;0.30;0.30;;;23.50;1.00;;;;;;5018250;28;20187;-78
2022/06/09 12:47:59;;;;;;;0.30;0.30;;;23.40;1.00;;;;;;5018567;28;20180;-80
2022/06/09 12:50:37;;;;;;;0.50;0.50;;;23.50;1.00;;;;;;5017925;28;20525;-81
2022/06/09 12:53:07;;;;;;;0.30;0.30;;;24.00;1.00;;;;;;5020007;28;20251;-80
2022/06/09 12:55:36;;;;;;;0.30;0.30;;;24.50;1.00;;;;;;5017595;28;20172;-79
2022/06/09 12:58:06;;;;;;;0.30;0.30;;;24.60;1.00;;;;;;5015858;28;20526;-79
2022/06/09 13:00:38;;;;;;;0.40;0.40;;;25.10;1.00;;;;;;5015556;28;20228;-80
2022/06/09 13:03:24;;;;;;;0.40;0.40;;;24.80;1.00;;;;;;5016116;28;20200;-79
2022/06/09 13:05:50;;;;;;;0.40;0.40;;;24.40;1.00;;;;;;5016121;28;20180;-79
2022/06/09 13:08:23;;;;;;;0.40;0.40;;;24.10;1.00;;;;;;5015338;28;20173;-79
2022/06/09 13:11:02;;;;;;;0.30;0.30;;;23.80;1.00;;;;;;5014527;28;20184;-79
2022/06/09 13:13:40;;;;;;;0.40;0.40;;;23.50;1.00;;;;;;5017031;28;20191;-79
2022/06/09 13:16:20;;;;;;;0.30;0.30;;;22.90;1.00;;;;;;5014416;28;20180;-78
2022/06/09 13:18:53;;;;;;;0.40;0.40;;;22.60;1.00;;;;;;5016481;28;20192;-80
2022/06/09 13:21:21;;;;;;;0.30;0.30;;;23.30;1.00;;;;;;5017595;28;20299;-79
2022/06/09 13:23:55;;;;;;;0.30;0.30;;;24.00;1.00;;;;;;5015831;28;20183;-79
2022/06/09 13:26:24;;;;;;;0.43;0.43;;;24.30;1.00;;;;;;5016763;28;20661;-79
2022/06/09 13:28:53;;;;;;;0.50;0.50;;;24.70;1.00;;;;;;5017057;28;20184;-80
2022/06/09 13:31:30;;;;;;;0.30;0.30;;;25.10;1.00;;;;;;5015261;28;20250;-79
2022/06/09 13:34:13;;;;;;;0.40;0.40;;;25.20;1.00;;;;;;5016916;28;20212;-79
2022/06/09 13:36:42;;;;;;;0.40;0.40;;;24.80;1.00;;;;;;5016177;28;20231;-79
2022/06/09 13:39:29;;;;;;;0.43;0.43;;;24.20;1.00;;;;;;5015441;28;20176;-78
2022/06/09 13:42:20;;;;;;;0.40;0.40;;;23.40;1.00;;;;;;5015286;28;20220;-78
2022/06/09 13:45:03;;;;;;;0.40;0.40;;;23.70;1.00;;;;;;5017002;28;20187;-79